Amber, New York
Current Conditions -  °F | °C
As of 2:54 PM on Wednesday 26 Nov 2014 (Local Time) from KSYR Reporting Station
Light Snow Light Snow  
Wind Chill: 28°   Ceiling: 500
Heat Index: 33°   Visibility: 0.75mi
Dew Point: 31°   Wind: 6mph
Humidity: 92%   Direction: 350°N
Pressure: 30.09"   Gusts: NA
Location:  42.889°N, 76.2819°W
Report Text: KSYR 261954Z 35005KT 3/4SM R28/4500V6000FT -SN BR BKN005 OVC012 01/M01 A3009 RMK AO2 SLP188 P0004 T00061006
Loading
Personal Weather Stations






























Interactive Weather Map New forecast layout! Learn more

10-Day Weather Forecast

Advertisements
Track Severe Weather on mobile